sensor_id;sensor_type;location;lat;lon;timestamp;pressure;altitude;pressure_sealevel;temperature;humidity
7105;BME280;3594;42.152;24.714;2024-03-08T00:01:35;-23036.34;;;6.10;nan
7105;BME280;3594;42.152;24.714;2024-03-08T00:04:01;-23347.13;;;5.90;nan
7105;BME280;3594;42.152;24.714;2024-03-08T00:06:26;-22729.66;;;6.48;nan
7105;BME280;3594;42.152;24.714;2024-03-08T00:08:52;-22414.19;;;6.52;nan
7105;BME280;3594;42.152;24.714;2024-03-08T00:11:17;-23040.38;;;6.26;nan
7105;BME280;3594;42.152;24.714;2024-03-08T00:13:43;-23351.22;;;6.05;nan
7105;BME280;3594;42.152;24.714;2024-03-08T00:16:10;-23355.75;;;6.21;nan
7105;BME280;3594;42.152;24.714;2024-03-08T00:18:35;-23356.69;;;6.25;nan
7105;BME280;3594;42.152;24.714;2024-03-08T00:21:02;-23357.25;;;6.27;nan
7105;BME280;3594;42.152;24.714;2024-03-08T00:23:27;-23354.38;;;6.16;nan
7105;BME280;3594;42.152;24.714;2024-03-08T00:25:53;-23041.56;;;6.30;nan
7105;BME280;3594;42.152;24.714;2024-03-08T00:28:21;-23354.09;;;6.15;nan
7105;BME280;3594;42.152;24.714;2024-03-08T00:30:47;-23356.69;;;6.25;nan
7105;BME280;3594;42.152;24.714;2024-03-08T00:33:12;-23354.66;;;6.17;nan
7105;BME280;3594;42.152;24.714;2024-03-08T00:35:38;-22729.53;;;6.47;nan
7105;BME280;3594;42.152;24.714;2024-03-08T00:38:03;-22410.31;;;6.37;nan
7105;BME280;3594;42.152;24.714;2024-03-08T00:40:29;-22412.50;;;6.46;nan
7105;BME280;3594;42.152;24.714;2024-03-08T00:42:54;-22722.69;;;6.21;nan
7105;BME280;3594;42.152;24.714;2024-03-08T00:45:22;-23039.03;;;6.20;nan
7105;BME280;3594;42.152;24.714;2024-03-08T00:47:48;-23354.09;;;6.15;nan
7105;BME280;3594;42.152;24.714;2024-03-08T00:50:14;-23352.72;;;6.10;nan
7105;BME280;3594;42.152;24.714;2024-03-08T00:52:39;-22721.13;;;6.15;nan
7105;BME280;3594;42.152;24.714;2024-03-08T00:55:05;-22092.69;;;6.33;nan
7105;BME280;3594;42.152;24.714;2024-03-08T00:57:31;-21777.91;;;6.41;nan
7105;BME280;3594;42.152;24.714;2024-03-08T00:59:58;-21778.53;;;6.43;nan
7105;BME280;3594;42.152;24.714;2024-03-08T01:02:23;-22722.81;;;6.21;nan
7105;BME280;3594;42.152;24.714;2024-03-08T01:04:49;-23031.50;;;5.92;nan
7105;BME280;3594;42.152;24.714;2024-03-08T01:07:15;-23040.50;;;6.26;nan
7105;BME280;3594;42.152;24.714;2024-03-08T01:09:41;-22725.19;;;6.31;nan
7105;BME280;3594;42.152;24.714;2024-03-08T01:12:07;-22722.69;;;6.21;nan
7105;BME280;3594;42.152;24.714;2024-03-08T01:14:33;-22722.94;;;6.22;nan
7105;BME280;3594;42.152;24.714;2024-03-08T01:16:58;-22720.44;;;6.12;nan
7105;BME280;3594;42.152;24.714;2024-03-08T01:19:24;-23035.94;;;6.09;nan
7105;BME280;3594;42.152;24.714;2024-03-08T01:21:50;-22723.09;;;6.22;nan
7105;BME280;3594;42.152;24.714;2024-03-08T01:24:16;-22721.25;;;6.15;nan
7105;BME280;3594;42.152;24.714;2024-03-08T01:26:42;-22720.06;;;6.11;nan
7105;BME280;3594;42.152;24.714;2024-03-08T01:29:07;-23039.03;;;6.20;nan
7105;BME280;3594;42.152;24.714;2024-03-08T01:31:33;-22722.81;;;6.21;nan
7105;BME280;3594;42.152;24.714;2024-03-08T01:33:59;-22406.44;;;6.22;nan
7105;BME280;3594;42.152;24.714;2024-03-08T01:36:25;-22405.16;;;6.17;nan
7105;BME280;3594;42.152;24.714;2024-03-08T01:38:51;-21459.78;;;6.35;nan
7105;BME280;3594;42.152;24.714;2024-03-08T01:41:17;-22089.78;;;6.21;nan
7105;BME280;3594;42.152;24.714;2024-03-08T01:43:43;-22397.66;;;5.88;nan
7105;BME280;3594;42.152;24.714;2024-03-08T01:46:09;-22722.44;;;6.20;nan
7105;BME280;3594;42.152;24.714;2024-03-08T01:48:38;-22725.47;;;6.32;nan
7105;BME280;3594;42.152;24.714;2024-03-08T01:51:04;-22726.25;;;6.35;nan
7105;BME280;3594;42.152;24.714;2024-03-08T01:53:30;-22407.75;;;6.27;nan
7105;BME280;3594;42.152;24.714;2024-03-08T01:55:57;-22721.25;;;6.15;nan
7105;BME280;3594;42.152;24.714;2024-03-08T01:58:24;-22726.50;;;6.36;nan
7105;BME280;3594;42.152;24.714;2024-03-08T02:00:50;-22408.50;;;6.30;nan
7105;BME280;3594;42.152;24.714;2024-03-08T02:03:18;-22409.16;;;6.33;nan
7105;BME280;3594;42.152;24.714;2024-03-08T02:05:44;-22400.50;;;5.99;nan
7105;BME280;3594;42.152;24.714;2024-03-08T02:08:10;-22407.59;;;6.27;nan
7105;BME280;3594;42.152;24.714;2024-03-08T02:10:43;-22408.91;;;6.32;nan
7105;BME280;3594;42.152;24.714;2024-03-08T02:13:09;-22410.56;;;6.38;nan
7105;BME280;3594;42.152;24.714;2024-03-08T02:15:54;-22412.91;;;6.47;nan
7105;BME280;3594;42.152;24.714;2024-03-08T02:18:21;-22410.69;;;6.39;nan
7105;BME280;3594;42.152;24.714;2024-03-08T02:20:58;-22408.91;;;6.32;nan
7105;BME280;3594;42.152;24.714;2024-03-08T02:23:24;-22413.16;;;6.48;nan
7105;BME280;3594;42.152;24.714;2024-03-08T02:25:51;-22413.16;;;6.48;nan
7105;BME280;3594;42.152;24.714;2024-03-08T02:28:17;-22413.28;;;6.49;nan
7105;BME280;3594;42.152;24.714;2024-03-08T02:30:44;-21782.13;;;6.58;nan
7105;BME280;3594;42.152;24.714;2024-03-08T02:33:13;-21780.41;;;6.51;nan
7105;BME280;3594;42.152;24.714;2024-03-08T02:35:42;-21779.91;;;6.49;nan
7105;BME280;3594;42.152;24.714;2024-03-08T02:38:07;-21779.91;;;6.49;nan
7105;BME280;3594;42.152;24.714;2024-03-08T02:40:33;-21779.53;;;6.47;nan
7105;BME280;3594;42.152;24.714;2024-03-08T02:42:59;-21778.41;;;6.43;nan
7105;BME280;3594;42.152;24.714;2024-03-08T02:45:24;-22088.91;;;6.18;nan
7105;BME280;3594;42.152;24.714;2024-03-08T02:47:50;-22096.34;;;6.48;nan
7105;BME280;3594;42.152;24.714;2024-03-08T02:50:15;-22095.97;;;6.46;nan
7105;BME280;3594;42.152;24.714;2024-03-08T02:52:42;-22096.72;;;6.49;nan
7105;BME280;3594;42.152;24.714;2024-03-08T02:55:08;-22096.72;;;6.49;nan
7105;BME280;3594;42.152;24.714;2024-03-08T02:57:36;-21778.91;;;6.45;nan
7105;BME280;3594;42.152;24.714;2024-03-08T03:00:02;-22086.50;;;6.08;nan
7105;BME280;3594;42.152;24.714;2024-03-08T03:02:29;-22408.63;;;6.31;nan
7105;BME280;3594;42.152;24.714;2024-03-08T03:04:54;-22406.72;;;6.23;nan
7105;BME280;3594;42.152;24.714;2024-03-08T03:07:21;-22409.28;;;6.33;nan
7105;BME280;3594;42.152;24.714;2024-03-08T03:09:46;-22087.75;;;6.13;nan
7105;BME280;3594;42.152;24.714;2024-03-08T03:12:12;-22402.19;;;6.05;nan
7105;BME280;3594;42.152;24.714;2024-03-08T03:14:37;-22719.28;;;6.08;nan
7105;BME280;3594;42.152;24.714;2024-03-08T03:17:06;-23033.00;;;5.98;nan
7105;BME280;3594;42.152;24.714;2024-03-08T03:19:31;-23341.50;;;5.69;nan
7105;BME280;3594;42.152;24.714;2024-03-08T03:21:56;-23663.78;;;5.91;nan
7105;BME280;3594;42.152;24.714;2024-03-08T03:24:22;-23655.56;;;5.61;nan
7105;BME280;3594;42.152;24.714;2024-03-08T03:26:49;-23660.28;;;5.78;nan
7105;BME280;3594;42.152;24.714;2024-03-08T03:29:15;-23969.50;;;5.54;nan
7105;BME280;3594;42.152;24.714;2024-03-08T03:31:42;-23977.88;;;5.77;nan
7105;BME280;3594;42.152;24.714;2024-03-08T03:34:07;-23972.19;;;5.57;nan
7105;BME280;3594;42.152;24.714;2024-03-08T03:36:34;-23964.50;;;5.29;nan
7105;BME280;3594;42.152;24.714;2024-03-08T03:39:00;-23970.34;;;5.50;nan
7105;BME280;3594;42.152;24.714;2024-03-08T03:41:41;-23963.25;;;5.25;nan
7105;BME280;3594;42.152;24.714;2024-03-08T03:44:07;-23966.78;;;5.38;nan
7105;BME280;3594;42.152;24.714;2024-03-08T03:46:33;-23968.78;;;5.45;nan
7105;BME280;3594;42.152;24.714;2024-03-08T03:48:59;-23968.22;;;5.43;nan
7105;BME280;3594;42.152;24.714;2024-03-08T03:51:24;-23973.34;;;5.61;nan
7105;BME280;3594;42.152;24.714;2024-03-08T03:53:50;-23971.06;;;5.53;nan
7105;BME280;3594;42.152;24.714;2024-03-08T03:56:16;-23970.78;;;5.52;nan
7105;BME280;3594;42.152;24.714;2024-03-08T03:58:41;-23968.06;;;5.42;nan
7105;BME280;3594;42.152;24.714;2024-03-08T04:01:07;-23969.91;;;5.49;nan
7105;BME280;3594;42.152;24.714;2024-03-08T04:03:33;-23965.22;;;5.32;nan
7105;BME280;3594;42.152;24.714;2024-03-08T04:05:58;-23959.53;;;5.12;nan
7105;BME280;3594;42.152;24.714;2024-03-08T04:08:23;-23965.38;;;5.32;nan
7105;BME280;3594;42.152;24.714;2024-03-08T04:10:50;-23963.81;;;5.27;nan
7105;BME280;3594;42.152;24.714;2024-03-08T04:13:16;-23964.22;;;5.28;nan
7105;BME280;3594;42.152;24.714;2024-03-08T04:15:41;-23968.50;;;5.44;nan
7105;BME280;3594;42.152;24.714;2024-03-08T04:18:09;-23968.94;;;5.45;nan
7105;BME280;3594;42.152;24.714;2024-03-08T04:20:34;-23965.78;;;5.34;nan
7105;BME280;3594;42.152;24.714;2024-03-08T04:23:00;-23958.69;;;5.09;nan
7105;BME280;3594;42.152;24.714;2024-03-08T04:25:26;-23965.66;;;5.33;nan
7105;BME280;3594;42.152;24.714;2024-03-08T04:27:52;-23962.25;;;5.21;nan
7105;BME280;3594;42.152;24.714;2024-03-08T04:30:17;-23963.25;;;5.25;nan
7105;BME280;3594;42.152;24.714;2024-03-08T04:32:43;-23967.06;;;5.39;nan
7105;BME280;3594;42.152;24.714;2024-03-08T04:35:09;-23961.38;;;5.18;nan
7105;BME280;3594;42.152;24.714;2024-03-08T04:37:34;-23964.94;;;5.31;nan
7105;BME280;3594;42.152;24.714;2024-03-08T04:40:00;-23960.25;;;5.14;nan
7105;BME280;3594;42.152;24.714;2024-03-08T04:42:26;-23965.09;;;5.31;nan
7105;BME280;3594;42.152;24.714;2024-03-08T04:44:54;-23959.69;;;5.12;nan
7105;BME280;3594;42.152;24.714;2024-03-08T04:47:19;-23963.09;;;5.24;nan
7105;BME280;3594;42.152;24.714;2024-03-08T04:49:45;-23955.00;;;4.96;nan
7105;BME280;3594;42.152;24.714;2024-03-08T04:52:12;-23959.69;;;5.12;nan
7105;BME280;3594;42.152;24.714;2024-03-08T04:54:37;-23961.09;;;5.17;nan
7105;BME280;3594;42.152;24.714;2024-03-08T04:57:03;-23960.09;;;5.14;nan
7105;BME280;3594;42.152;24.714;2024-03-08T04:59:30;-23952.56;;;4.87;nan
7105;BME280;3594;42.152;24.714;2024-03-08T05:01:56;-23959.69;;;5.12;nan
7105;BME280;3594;42.152;24.714;2024-03-08T05:04:22;-23956.56;;;5.01;nan
7105;BME280;3594;42.152;24.714;2024-03-08T05:06:48;-23960.09;;;5.14;nan
7105;BME280;3594;42.152;24.714;2024-03-08T05:09:14;-23949.00;;;4.74;nan
7105;BME280;3594;42.152;24.714;2024-03-08T05:11:41;-23953.84;;;4.92;nan
7105;BME280;3594;42.152;24.714;2024-03-08T05:14:08;-23948.03;;;4.71;nan
7105;BME280;3594;42.152;24.714;2024-03-08T05:16:33;-23954.84;;;4.95;nan
7105;BME280;3594;42.152;24.714;2024-03-08T05:18:59;-23955.13;;;4.96;nan
7105;BME280;3594;42.152;24.714;2024-03-08T05:21:25;-23957.41;;;5.04;nan
7105;BME280;3594;42.152;24.714;2024-03-08T05:23:50;-23955.84;;;4.99;nan
7105;BME280;3594;42.152;24.714;2024-03-08T05:26:16;-23950.44;;;4.79;nan
7105;BME280;3594;42.152;24.714;2024-03-08T05:28:42;-23948.31;;;4.72;nan
7105;BME280;3594;42.152;24.714;2024-03-08T05:31:08;-23956.69;;;5.02;nan
7105;BME280;3594;42.152;24.714;2024-03-08T05:33:33;-23953.28;;;4.89;nan
7105;BME280;3594;42.152;24.714;2024-03-08T05:36:00;-23954.28;;;4.93;nan
7105;BME280;3594;42.152;24.714;2024-03-08T05:38:27;-23954.00;;;4.92;nan
7105;BME280;3594;42.152;24.714;2024-03-08T05:40:53;-23950.16;;;4.78;nan
7105;BME280;3594;42.152;24.714;2024-03-08T05:43:19;-23960.81;;;5.16;nan
7105;BME280;3594;42.152;24.714;2024-03-08T05:45:46;-23957.53;;;5.05;nan
7105;BME280;3594;42.152;24.714;2024-03-08T05:48:11;-23961.66;;;5.19;nan
7105;BME280;3594;42.152;24.714;2024-03-08T05:50:38;-23960.81;;;5.16;nan
7105;BME280;3594;42.152;24.714;2024-03-08T05:53:04;-23958.53;;;5.08;nan
7105;BME280;3594;42.152;24.714;2024-03-08T05:55:32;-23961.09;;;5.17;nan
7105;BME280;3594;42.152;24.714;2024-03-08T05:58:01;-23958.53;;;5.08;nan
7105;BME280;3594;42.152;24.714;2024-03-08T06:00:27;-23962.53;;;5.22;nan
7105;BME280;3594;42.152;24.714;2024-03-08T06:02:53;-23959.41;;;5.11;nan
7105;BME280;3594;42.152;24.714;2024-03-08T06:05:19;-23955.69;;;4.98;nan
7105;BME280;3594;42.152;24.714;2024-03-08T06:07:44;-23969.78;;;5.48;nan
7105;BME280;3594;42.152;24.714;2024-03-08T06:10:10;-23967.66;;;5.41;nan
7105;BME280;3594;42.152;24.714;2024-03-08T06:12:38;-23972.91;;;5.59;nan
7105;BME280;3594;42.152;24.714;2024-03-08T06:15:09;-23976.88;;;5.73;nan
7105;BME280;3594;42.152;24.714;2024-03-08T06:17:36;-23976.59;;;5.72;nan
7105;BME280;3594;42.152;24.714;2024-03-08T06:20:02;-23979.72;;;5.84;nan
7105;BME280;3594;42.152;24.714;2024-03-08T06:22:29;-23980.72;;;5.87;nan
7105;BME280;3594;42.152;24.714;2024-03-08T06:24:56;-23981.56;;;5.90;nan
7105;BME280;3594;42.152;24.714;2024-03-08T06:27:22;-23983.72;;;5.98;nan
7105;BME280;3594;42.152;24.714;2024-03-08T06:29:47;-23984.97;;;6.02;nan
7105;BME280;3594;42.152;24.714;2024-03-08T06:32:14;-23988.69;;;6.15;nan
7105;BME280;3594;42.152;24.714;2024-03-08T06:34:41;-23989.09;;;6.17;nan
7105;BME280;3594;42.152;24.714;2024-03-08T06:37:06;-23988.25;;;6.14;nan
7105;BME280;3594;42.152;24.714;2024-03-08T06:39:32;-23988.97;;;6.16;nan
7105;BME280;3594;42.152;24.714;2024-03-08T06:41:59;-23992.22;;;6.28;nan
7105;BME280;3594;42.152;24.714;2024-03-08T06:44:28;-23990.94;;;6.24;nan
7105;BME280;3594;42.152;24.714;2024-03-08T06:46:53;-23990.25;;;6.21;nan
7105;BME280;3594;42.152;24.714;2024-03-08T06:49:19;-23993.50;;;6.33;nan
7105;BME280;3594;42.152;24.714;2024-03-08T06:51:45;-23990.94;;;6.24;nan
7105;BME280;3594;42.152;24.714;2024-03-08T06:54:11;-23993.78;;;6.34;nan
7105;BME280;3594;42.152;24.714;2024-03-08T06:56:36;-23992.50;;;6.29;nan
7105;BME280;3594;42.152;24.714;2024-03-08T06:59:02;-23987.81;;;6.12;nan
7105;BME280;3594;42.152;24.714;2024-03-08T07:01:31;-23989.25;;;6.17;nan
7105;BME280;3594;42.152;24.714;2024-03-08T07:03:58;-23991.38;;;6.25;nan
7105;BME280;3594;42.152;24.714;2024-03-08T07:06:23;-23990.38;;;6.21;nan
7105;BME280;3594;42.152;24.714;2024-03-08T07:08:49;-23991.38;;;6.25;nan
7105;BME280;3594;42.152;24.714;2024-03-08T07:11:17;-23982.16;;;5.92;nan
7105;BME280;3594;42.152;24.714;2024-03-08T07:13:45;-23993.38;;;6.32;nan
7105;BME280;3594;42.152;24.714;2024-03-08T07:16:11;-23993.94;;;6.34;nan
7105;BME280;3594;42.152;24.714;2024-03-08T07:18:37;-23994.94;;;6.38;nan
7105;BME280;3594;42.152;24.714;2024-03-08T07:21:11;-23994.78;;;6.37;nan
7105;BME280;3594;42.152;24.714;2024-03-08T07:23:36;-23997.47;;;6.47;nan
7105;BME280;3594;42.152;24.714;2024-03-08T07:26:21;-23997.19;;;6.46;nan
7105;BME280;3594;42.152;24.714;2024-03-08T07:28:47;-23995.50;;;6.40;nan
7105;BME280;3594;42.152;24.714;2024-03-08T07:31:12;-23992.66;;;6.30;nan
7105;BME280;3594;42.152;24.714;2024-03-08T07:33:56;-23989.69;;;6.19;nan
7105;BME280;3594;42.152;24.714;2024-03-08T07:36:24;-23997.19;;;6.46;nan
7105;BME280;3594;42.152;24.714;2024-03-08T07:38:49;-23998.34;;;6.50;nan
7105;BME280;3594;42.152;24.714;2024-03-08T07:41:15;-23993.09;;;6.31;nan
7105;BME280;3594;42.152;24.714;2024-03-08T07:43:41;-24001.88;;;6.62;nan
7105;BME280;3594;42.152;24.714;2024-03-08T07:46:09;-23999.75;;;6.55;nan
7105;BME280;3594;42.152;24.714;2024-03-08T07:48:35;-24001.03;;;6.59;nan
7105;BME280;3594;42.152;24.714;2024-03-08T07:51:02;-23996.06;;;6.48;nan
7105;BME280;3594;42.152;24.714;2024-03-08T07:53:30;-23677.03;;;6.39;nan
7105;BME280;3594;42.152;24.714;2024-03-08T07:55:56;-23677.44;;;6.41;nan
7105;BME280;3594;42.152;24.714;2024-03-08T07:58:22;-23685.53;;;6.70;nan
7105;BME280;3594;42.152;24.714;2024-03-08T08:00:49;-23052.44;;;6.71;nan
7105;BME280;3594;42.152;24.714;2024-03-08T08:03:14;-23053.13;;;6.74;nan
7105;BME280;3594;42.152;24.714;2024-03-08T08:05:41;-22421.78;;;6.82;nan
7105;BME280;3594;42.152;24.714;2024-03-08T08:08:10;-23058.88;;;6.95;nan
7105;BME280;3594;42.152;24.714;2024-03-08T08:10:37;-23063.69;;;7.14;nan
7105;BME280;3594;42.152;24.714;2024-03-08T08:13:03;-23066.91;;;7.26;nan
7105;BME280;3594;42.152;24.714;2024-03-08T08:15:32;-22755.16;;;7.46;nan
7105;BME280;3594;42.152;24.714;2024-03-08T08:18:00;-21168.19;;;7.42;nan
7105;BME280;3594;42.152;24.714;2024-03-08T08:20:27;-20539.94;;;7.70;nan
7105;BME280;3594;42.152;24.714;2024-03-08T08:22:54;-18000.44;;;7.77;nan
7105;BME280;3594;42.152;24.714;2024-03-08T08:25:20;-17364.34;;;7.74;nan
7105;BME280;3594;42.152;24.714;2024-03-08T08:27:46;-18001.00;;;7.80;nan
7105;BME280;3594;42.152;24.714;2024-03-08T08:30:12;-17049.06;;;7.89;nan
7105;BME280;3594;42.152;24.714;2024-03-08T08:32:39;-18323.69;;;8.07;nan
7105;BME280;3594;42.152;24.714;2024-03-08T08:35:05;-17052.94;;;8.13;nan
7105;BME280;3594;42.152;24.714;2024-03-08T08:37:32;-15141.16;;;7.90;nan
7105;BME280;3594;42.152;24.714;2024-03-08T08:39:57;-15144.09;;;8.12;nan
7105;BME280;3594;42.152;24.714;2024-03-08T08:42:24;-15146.22;;;8.28;nan
7105;BME280;3594;42.152;24.714;2024-03-08T08:44:51;-12918.78;;;8.42;nan
7105;BME280;3594;42.152;24.714;2024-03-08T08:47:17;-14827.00;;;8.21;nan
7105;BME280;3594;42.152;24.714;2024-03-08T08:49:47;-15782.16;;;8.24;nan
7105;BME280;3594;42.152;24.714;2024-03-08T08:52:12;-15776.78;;;7.87;nan
7105;BME280;3594;42.152;24.714;2024-03-08T08:54:38;-14510.31;;;8.34;nan
7105;BME280;3594;42.152;24.714;2024-03-08T08:57:04;-11641.38;;;8.07;nan
7105;BME280;3594;42.152;24.714;2024-03-08T08:59:36;-14189.84;;;8.17;nan
7105;BME280;3594;42.152;24.714;2024-03-08T09:02:07;-14829.94;;;8.43;nan
7105;BME280;3594;42.152;24.714;2024-03-08T09:04:34;-15148.69;;;8.46;nan
7105;BME280;3594;42.152;24.714;2024-03-08T09:07:01;-14193.97;;;8.51;nan
7105;BME280;3594;42.152;24.714;2024-03-08T09:09:26;-12282.47;;;8.53;nan
7105;BME280;3594;42.152;24.714;2024-03-08T09:11:52;-12604.00;;;8.83;nan
7105;BME280;3594;42.152;24.714;2024-03-08T09:14:19;-11329.34;;;8.96;nan
7105;BME280;3594;42.152;24.714;2024-03-08T09:16:45;-10371.03;;;8.76;nan
7105;BME280;3594;42.152;24.714;2024-03-08T09:19:12;-9733.59;;;8.91;nan
7105;BME280;3594;42.152;24.714;2024-03-08T09:21:38;-9414.97;;;9.04;nan
7105;BME280;3594;42.152;24.714;2024-03-08T09:24:05;-7498.63;;;8.81;nan
7105;BME280;3594;42.152;24.714;2024-03-08T09:26:32;-9414.59;;;8.95;nan
7105;BME280;3594;42.152;24.714;2024-03-08T09:28:59;-8456.78;;;8.93;nan
7105;BME280;3594;42.152;24.714;2024-03-08T09:31:24;-7818.47;;;9.13;nan
7105;BME280;3594;42.152;24.714;2024-03-08T09:33:51;-8457.44;;;9.18;nan
7105;BME280;3594;42.152;24.714;2024-03-08T09:36:17;-5901.06;;;9.17;nan
7105;BME280;3594;42.152;24.714;2024-03-08T09:38:42;-6540.34;;;9.19;nan
7105;BME280;3594;42.152;24.714;2024-03-08T09:41:08;-5581.13;;;9.29;nan
7105;BME280;3594;42.152;24.714;2024-03-08T09:43:35;-4941.94;;;9.17;nan
7105;BME280;3594;42.152;24.714;2024-03-08T09:46:02;-5901.19;;;9.09;nan
7105;BME280;3594;42.152;24.714;2024-03-08T09:48:28;-4941.56;;;9.28;nan
7105;BME280;3594;42.152;24.714;2024-03-08T09:50:54;-3343.44;;;9.05;nan
7105;BME280;3594;42.152;24.714;2024-03-08T09:53:20;-4941.84;;;9.20;nan
7105;BME280;3594;42.152;24.714;2024-03-08T09:55:47;-4942.28;;;9.06;nan
7105;BME280;3594;42.152;24.714;2024-03-08T09:58:15;-3982.13;;;9.25;nan
7105;BME280;3594;42.152;24.714;2024-03-08T10:00:43;-3341.75;;;9.34;nan
7105;BME280;3594;42.152;24.714;2024-03-08T10:03:08;-3981.84;;;9.31;nan
7105;BME280;3594;42.152;24.714;2024-03-08T10:05:34;-1419.22;;;9.56;nan
7105;BME280;3594;42.152;24.714;2024-03-08T10:08:00;-1418.81;;;9.60;nan
7105;BME280;3594;42.152;24.714;2024-03-08T10:10:25;-1100.56;;;9.38;nan
7105;BME280;3594;42.152;24.714;2024-03-08T10:12:51;-2059.19;;;9.63;nan
7105;BME280;3594;42.152;24.714;2024-03-08T10:15:17;-1418.88;;;9.60;nan
7105;BME280;3594;42.152;24.714;2024-03-08T10:17:42;185.63;;;9.81;nan
7105;BME280;3594;42.152;24.714;2024-03-08T10:20:16;-774.94;;;9.92;nan
7105;BME280;3594;42.152;24.714;2024-03-08T10:22:42;830.50;;;10.10;nan
7105;BME280;3594;42.152;24.714;2024-03-08T10:25:10;2113.84;;;10.09;nan
7105;BME280;3594;42.152;24.714;2024-03-08T10:27:41;5970.44;;;10.24;nan
7105;BME280;3594;42.152;24.714;2024-03-08T10:30:10;7577.28;;;10.22;nan
7105;BME280;3594;42.152;24.714;2024-03-08T10:32:38;7252.50;;;10.08;nan
7105;BME280;3594;42.152;24.714;2024-03-08T10:35:05;4999.06;;;9.86;nan
7105;BME280;3594;42.152;24.714;2024-03-08T10:40:09;5649.38;;;10.26;nan
7105;BME280;3594;42.152;24.714;2024-03-08T10:42:51;7247.16;;;9.85;nan
7105;BME280;3594;42.152;24.714;2024-03-08T10:45:31;9500.97;;;9.99;nan
7105;BME280;3594;42.152;24.714;2024-03-08T10:50:36;5963.56;;;9.91;nan
7105;BME280;3594;42.152;24.714;2024-03-08T10:53:06;8850.69;;;9.71;nan
7105;BME280;3594;42.152;24.714;2024-03-08T10:55:33;9831.00;;;10.30;nan
7105;BME280;3594;42.152;24.714;2024-03-08T10:57:59;11129.44;;;10.68;nan
7105;BME280;3594;42.152;24.714;2024-03-08T11:00:25;18882.09;;;10.98;nan
7105;BME280;3594;42.152;24.714;2024-03-08T11:02:54;30551.78;;;11.31;nan
7105;BME280;3594;42.152;24.714;2024-03-08T11:05:39;35089.38;;;11.22;nan
7105;BME280;3594;42.152;24.714;2024-03-08T11:08:20;37375.72;;;11.39;nan
7105;BME280;3594;42.152;24.714;2024-03-08T11:10:53;23762.00;;;11.60;nan
7105;BME280;3594;42.152;24.714;2024-03-08T11:16:02;23785.84;;;12.07;nan
7105;BME280;3594;42.152;24.714;2024-03-08T11:18:33;32555.16;;;12.19;nan
7105;BME280;3594;42.152;24.714;2024-03-08T11:21:02;37406.91;;;11.82;nan
7105;BME280;3594;42.152;24.714;2024-03-08T11:23:30;38063.47;;;11.90;nan
7105;BME280;3594;42.152;24.714;2024-03-08T11:25:56;32848.88;;;11.71;nan
7105;BME280;3594;42.152;24.714;2024-03-08T11:28:25;41010.50;;;11.99;nan
7105;BME280;3594;42.152;24.714;2024-03-08T11:33:27;50402.09;;;12.58;nan
7105;BME280;3594;42.152;24.714;2024-03-08T11:36:02;51998.06;;;12.86;nan
7105;BME280;3594;42.152;24.714;2024-03-08T11:38:32;50742.91;;;12.72;nan
7105;BME280;3594;42.152;24.714;2024-03-08T11:40:58;53197.03;;;12.96;nan
7105;BME280;3594;42.152;24.714;2024-03-08T11:43:24;51539.38;;;12.88;nan
7105;BME280;3594;42.152;24.714;2024-03-08T11:45:50;51475.13;;;12.66;nan
7105;BME280;3594;42.152;24.714;2024-03-08T11:48:15;53666.44;;;12.25;nan
7105;BME280;3594;42.152;24.714;2024-03-08T11:50:41;50127.41;;;12.02;nan
7105;BME280;3594;42.152;24.714;2024-03-08T11:53:08;46657.97;;;12.09;nan
7105;BME280;3594;42.152;24.714;2024-03-08T11:55:34;44790.75;;;12.25;nan
7105;BME280;3594;42.152;24.714;2024-03-08T11:58:03;51136.41;;;12.29;nan
7105;BME280;3594;42.152;24.714;2024-03-08T12:00:29;53281.97;;;12.34;nan
7105;BME280;3594;42.152;24.714;2024-03-08T12:03:04;54962.72;;;12.18;nan
7105;BME280;3594;42.152;24.714;2024-03-08T12:05:30;52854.34;;;12.13;nan
7105;BME280;3594;42.152;24.714;2024-03-08T12:08:00;52856.94;;;11.94;nan
7105;BME280;3594;42.152;24.714;2024-03-08T12:10:25;53451.44;;;11.68;nan
7105;BME280;3594;42.152;24.714;2024-03-08T12:12:52;50252.22;;;11.33;nan
7105;BME280;3594;42.152;24.714;2024-03-08T12:15:20;51364.28;;;11.42;nan
7105;BME280;3594;42.152;24.714;2024-03-08T12:17:48;46103.44;;;11.05;nan
7105;BME280;3594;42.152;24.714;2024-03-08T12:22:43;46057.91;;;11.14;nan
7105;BME280;3594;42.152;24.714;2024-03-08T12:25:11;41864.25;;;11.05;nan
7105;BME280;3594;42.152;24.714;2024-03-08T12:27:38;31161.16;;;10.68;nan
7105;BME280;3594;42.152;24.714;2024-03-08T12:32:52;14976.50;;;10.10;nan
7105;BME280;3594;42.152;24.714;2024-03-08T12:35:22;4358.63;;;9.95;nan
7105;BME280;3594;42.152;24.714;2024-03-08T12:37:50;5643.91;;;9.99;nan
7105;BME280;3594;42.152;24.714;2024-03-08T12:40:17;7571.44;;;9.97;nan
7105;BME280;3594;42.152;24.714;2024-03-08T12:42:45;6606.16;;;9.92;nan
7105;BME280;3594;42.152;24.714;2024-03-08T12:45:13;6284.13;;;9.88;nan
7105;BME280;3594;42.152;24.714;2024-03-08T12:47:39;4347.41;;;9.34;nan
7105;BME280;3594;42.152;24.714;2024-03-08T12:50:07;2101.47;;;9.24;nan
7105;BME280;3594;42.152;24.714;2024-03-08T12:52:34;2419.59;;;9.09;nan
7105;BME280;3594;42.152;24.714;2024-03-08T12:55:00;1457.69;;;9.03;nan
7105;BME280;3594;42.152;24.714;2024-03-08T12:57:28;-783.56;;;9.05;nan
7105;BME280;3594;42.152;24.714;2024-03-08T12:59:54;-461.69;;;9.22;nan
7105;BME280;3594;42.152;24.714;2024-03-08T13:02:19;1783.22;;;9.40;nan
7105;BME280;3594;42.152;24.714;2024-03-08T13:04:46;3067.41;;;9.51;nan
7105;BME280;3594;42.152;24.714;2024-03-08T13:07:21;4026.41;;;9.32;nan
7105;BME280;3594;42.152;24.714;2024-03-08T13:09:46;4028.13;;;9.42;nan
7105;BME280;3594;42.152;24.714;2024-03-08T13:12:12;4028.38;;;9.44;nan
7105;BME280;3594;42.152;24.714;2024-03-08T13:14:37;4029.72;;;9.51;nan
7105;BME280;3594;42.152;24.714;2024-03-08T13:17:02;4994.09;;;9.60;nan
7105;BME280;3594;42.152;24.714;2024-03-08T13:19:29;4997.41;;;9.77;nan
7105;BME280;3594;42.152;24.714;2024-03-08T13:21:55;6599.72;;;9.62;nan
7105;BME280;3594;42.152;24.714;2024-03-08T13:24:21;5967.38;;;10.09;nan
7105;BME280;3594;42.152;24.714;2024-03-08T13:26:47;8531.84;;;9.82;nan
7105;BME280;3594;42.152;24.714;2024-03-08T13:29:12;13362.44;;;9.99;nan
7105;BME280;3594;42.152;24.714;2024-03-08T13:31:40;17541.94;;;9.77;nan
7105;BME280;3594;42.152;24.714;2024-03-08T13:34:05;21403.22;;;9.59;nan
7105;BME280;3594;42.152;24.714;2024-03-08T13:36:30;23357.81;;;9.97;nan
7105;BME280;3594;42.152;24.714;2024-03-08T13:39:04;21421.91;;;10.00;nan
7105;BME280;3594;42.152;24.714;2024-03-08T13:41:43;18192.53;;;9.92;nan
7105;BME280;3594;42.152;24.714;2024-03-08T13:44:09;20761.81;;;9.67;nan
7105;BME280;3594;42.152;24.714;2024-03-08T13:46:35;14964.97;;;9.77;nan
7105;BME280;3594;42.152;24.714;2024-03-08T13:49:06;13675.09;;;9.71;nan
7105;BME280;3594;42.152;24.714;2024-03-08T13:51:33;13685.28;;;10.02;nan